createdAt,value
2023-03-04T00:00:04.375Z,-0.51
2023-03-04T00:00:14.396Z,-0.51
2023-03-04T00:00:24.384Z,-0.51
2023-03-04T00:00:34.397Z,-0.51
2023-03-04T00:00:44.387Z,-0.53
2023-03-04T00:00:54.390Z,-0.51
2023-03-04T00:01:04.398Z,-0.51
2023-03-04T00:01:14.391Z,-0.51
2023-03-04T00:01:24.390Z,-0.51
2023-03-04T00:01:34.390Z,-0.53
2023-03-04T00:01:44.419Z,-0.51
2023-03-04T00:01:54.398Z,-0.53
2023-03-04T00:02:04.435Z,-0.53
2023-03-04T00:02:14.443Z,-0.51
2023-03-04T00:02:24.408Z,-0.50
2023-03-04T00:02:34.389Z,-0.51
2023-03-04T00:02:44.447Z,-0.53
2023-03-04T00:02:54.439Z,-0.51
2023-03-04T00:03:04.516Z,-0.51
2023-03-04T00:03:14.447Z,-0.50
2023-03-04T00:03:24.424Z,-0.51
2023-03-04T00:03:34.400Z,-0.50
2023-03-04T00:03:44.417Z,-0.51
2023-03-04T00:03:54.399Z,-0.51
2023-03-04T00:04:04.405Z,-0.51
2023-03-04T00:04:14.404Z,-0.51
2023-03-04T00:04:24.413Z,-0.50
2023-03-04T00:04:34.412Z,-0.51
2023-03-04T00:04:44.404Z,-0.51
2023-03-04T00:04:54.411Z,-0.50
2023-03-04T00:05:04.411Z,-0.50
2023-03-04T00:05:14.417Z,-0.51
2023-03-04T00:05:24.408Z,-0.51
2023-03-04T00:05:34.411Z,-0.53
2023-03-04T00:05:44.417Z,-0.53
2023-03-04T00:05:54.419Z,-0.50
2023-03-04T00:06:04.414Z,-0.53
2023-03-04T00:06:14.422Z,-0.51
2023-03-04T00:06:24.425Z,-0.53
2023-03-04T00:06:34.411Z,-0.50
2023-03-04T00:06:44.420Z,-0.53
2023-03-04T00:06:54.412Z,-0.51
2023-03-04T00:07:04.414Z,-0.53
2023-03-04T00:07:14.436Z,-0.53
2023-03-04T00:07:24.420Z,-0.53
2023-03-04T00:07:34.430Z,-0.51
2023-03-04T00:07:44.420Z,-0.53
2023-03-04T00:07:54.427Z,-0.53
2023-03-04T00:08:04.423Z,-0.51
2023-03-04T00:08:14.448Z,-0.51
2023-03-04T00:08:24.427Z,-0.51
2023-03-04T00:08:34.422Z,-0.53
2023-03-04T00:08:44.424Z,-0.53
2023-03-04T00:08:54.423Z,-0.51
2023-03-04T00:09:04.430Z,-0.50
2023-03-04T00:09:14.427Z,-0.53
2023-03-04T00:09:24.425Z,-0.51
2023-03-04T00:09:34.431Z,-0.53
2023-03-04T00:09:44.427Z,-0.51
2023-03-04T00:09:54.428Z,-0.50
2023-03-04T00:10:04.428Z,-0.53
2023-03-04T00:10:14.441Z,-0.51
2023-03-04T00:10:24.470Z,-0.50
2023-03-04T00:10:34.442Z,-0.51
2023-03-04T00:10:44.434Z,-0.53
2023-03-04T00:10:54.438Z,-0.53
2023-03-04T00:11:04.437Z,-0.50
2023-03-04T00:11:14.439Z,-0.51
2023-03-04T00:11:24.455Z,-0.51
2023-03-04T00:11:34.451Z,-0.51
2023-03-04T00:11:44.440Z,-0.51
2023-03-04T00:11:54.438Z,-0.51
2023-03-04T00:12:04.441Z,-0.51
2023-03-04T00:12:14.438Z,-0.51
2023-03-04T00:12:24.445Z,-0.51
2023-03-04T00:12:34.440Z,-0.50
2023-03-04T00:12:44.443Z,-0.51
2023-03-04T00:12:54.455Z,-0.50
2023-03-04T00:13:04.446Z,-0.53
2023-03-04T00:13:14.474Z,-0.51
2023-03-04T00:13:24.464Z,-0.51
2023-03-04T00:13:34.456Z,-0.53
2023-03-04T00:13:44.449Z,-0.51
2023-03-04T00:13:54.443Z,-0.50
2023-03-04T00:14:04.453Z,-0.53
2023-03-04T00:14:14.442Z,-0.53
2023-03-04T00:14:24.475Z,-0.51
2023-03-04T00:14:34.455Z,-0.50
2023-03-04T00:14:44.459Z,-0.50
2023-03-04T00:14:54.462Z,-0.48
2023-03-04T00:15:04.452Z,-0.51
2023-03-04T00:15:14.457Z,-0.50
2023-03-04T00:15:24.460Z,-0.51
2023-03-04T00:15:34.457Z,-0.50
2023-03-04T00:15:44.459Z,-0.48
2023-03-04T00:15:54.466Z,-0.50
2023-03-04T00:16:04.506Z,-0.51
2023-03-04T00:16:14.469Z,-0.51
2023-03-04T00:16:24.489Z,-0.51
2023-03-04T00:16:34.497Z,-0.51
2023-03-04T00:16:44.532Z,-0.51
2023-03-04T00:16:54.467Z,-0.51
2023-03-04T00:17:04.504Z,-0.50
2023-03-04T00:17:14.471Z,-0.53
2023-03-04T00:17:24.477Z,-0.51
2023-03-04T00:17:34.461Z,-0.51
2023-03-04T00:17:44.466Z,-0.51
2023-03-04T00:17:54.473Z,-0.53
2023-03-04T00:18:04.523Z,-0.51
2023-03-04T00:18:14.481Z,-0.51
2023-03-04T00:18:24.479Z,-0.51
2023-03-04T00:18:34.463Z,-0.51
2023-03-04T00:18:44.467Z,-0.53
2023-03-04T00:18:54.463Z,-0.53
2023-03-04T00:19:04.467Z,-0.50
2023-03-04T00:19:14.473Z,-0.51
2023-03-04T00:19:24.486Z,-0.51
2023-03-04T00:19:34.466Z,-0.53
2023-03-04T00:19:44.473Z,-0.50
2023-03-04T00:19:54.469Z,-0.51
2023-03-04T00:20:04.470Z,-0.53
2023-03-04T00:20:14.480Z,-0.51
2023-03-04T00:20:24.483Z,-0.53
2023-03-04T00:20:34.485Z,-0.53
2023-03-04T00:20:44.469Z,-0.53
2023-03-04T00:20:54.479Z,-0.51
2023-03-04T00:21:04.476Z,-0.53
2023-03-04T00:21:14.473Z,-0.54
2023-03-04T00:21:24.500Z,-0.53
2023-03-04T00:21:34.493Z,-0.51
2023-03-04T00:21:44.483Z,-0.51
2023-03-04T00:21:54.487Z,-0.53
2023-03-04T00:22:04.659Z,-0.51
2023-03-04T00:22:14.477Z,-0.53
2023-03-04T00:22:24.490Z,-0.53
2023-03-04T00:22:34.518Z,-0.53
2023-03-04T00:22:44.477Z,-0.51
2023-03-04T00:22:54.490Z,-0.51
2023-03-04T00:23:04.486Z,-0.51
2023-03-04T00:23:14.500Z,-0.51
2023-03-04T00:23:24.487Z,-0.53
2023-03-04T00:23:34.494Z,-0.53
2023-03-04T00:23:44.488Z,-0.53
2023-03-04T00:23:54.488Z,-0.51
2023-03-04T00:24:04.504Z,-0.54
2023-03-04T00:24:14.476Z,-0.51
2023-03-04T00:24:24.495Z,-0.53
2023-03-04T00:24:34.488Z,-0.51
2023-03-04T00:24:44.543Z,-0.53
2023-03-04T00:24:54.496Z,-0.51
2023-03-04T00:25:04.497Z,-0.53
2023-03-04T00:25:14.496Z,-0.51
2023-03-04T00:25:24.507Z,-0.51
2023-03-04T00:25:34.493Z,-0.51
2023-03-04T00:25:44.498Z,-0.51
2023-03-04T00:25:54.502Z,-0.53
2023-03-04T00:26:04.502Z,-0.50
2023-03-04T00:26:14.503Z,-0.48
2023-03-04T00:26:24.511Z,-0.51
2023-03-04T00:26:34.499Z,-0.48
2023-03-04T00:26:44.539Z,-0.51
2023-03-04T00:26:54.514Z,-0.50
2023-03-04T00:27:04.501Z,-0.51
2023-03-04T00:27:14.511Z,-0.51
2023-03-04T00:27:24.511Z,-0.51
2023-03-04T00:27:34.506Z,-0.51
2023-03-04T00:27:44.547Z,-0.51
2023-03-04T00:27:54.509Z,-0.50
2023-03-04T00:28:04.505Z,-0.50
2023-03-04T00:28:14.541Z,-0.50
2023-03-04T00:28:24.515Z,-0.50
2023-03-04T00:28:34.508Z,-0.50
2023-03-04T00:28:44.536Z,-0.50
2023-03-04T00:28:54.512Z,-0.50
2023-03-04T00:29:04.516Z,-0.50
2023-03-04T00:29:14.521Z,-0.51
2023-03-04T00:29:24.517Z,-0.50
2023-03-04T00:29:34.515Z,-0.50
2023-03-04T00:29:44.538Z,-0.50
2023-03-04T00:29:54.521Z,-0.50
2023-03-04T00:30:04.525Z,-0.50
2023-03-04T00:30:14.523Z,-0.50
2023-03-04T00:30:24.519Z,-0.50
2023-03-04T00:30:34.517Z,-0.48
2023-03-04T00:30:44.554Z,-0.50
2023-03-04T00:30:54.526Z,-0.48
2023-03-04T00:31:04.528Z,-0.50
2023-03-04T00:31:14.691Z,-0.51
2023-03-04T00:31:24.620Z,-0.50
2023-03-04T00:31:34.576Z,-0.50
2023-03-04T00:31:44.612Z,-0.51
2023-03-04T00:31:54.567Z,-0.48
2023-03-04T00:32:04.653Z,-0.51
2023-03-04T00:32:14.559Z,-0.51
2023-03-04T00:32:24.549Z,-0.48
2023-03-04T00:32:34.572Z,-0.48
2023-03-04T00:32:44.594Z,-0.50
2023-03-04T00:32:54.545Z,-0.48
2023-03-04T00:33:04.544Z,-0.50
2023-03-04T00:33:14.550Z,-0.50
2023-03-04T00:33:24.548Z,-0.50
2023-03-04T00:33:34.548Z,-0.50
2023-03-04T00:33:44.573Z,-0.51
2023-03-04T00:33:54.546Z,-0.48
2023-03-04T00:34:04.533Z,-0.50
2023-03-04T00:34:14.547Z,-0.51
2023-03-04T00:34:24.560Z,-0.48
2023-03-04T00:34:34.540Z,-0.48
2023-03-04T00:34:44.552Z,-0.48
2023-03-04T00:34:54.548Z,-0.48
2023-03-04T00:35:04.544Z,-0.50
2023-03-04T00:35:14.545Z,-0.48
2023-03-04T00:35:24.587Z,-0.48
2023-03-04T00:35:34.557Z,-0.48
2023-03-04T00:35:44.800Z,-0.50
2023-03-04T00:35:54.579Z,-0.48
2023-03-04T00:36:04.554Z,-0.48
2023-03-04T00:36:14.550Z,-0.47
2023-03-04T00:36:24.559Z,-0.48
2023-03-04T00:36:34.545Z,-0.47
2023-03-04T00:36:44.554Z,-0.47
2023-03-04T00:36:54.582Z,-0.47
2023-03-04T00:37:04.560Z,-0.48
2023-03-04T00:37:14.555Z,-0.47
2023-03-04T00:37:24.559Z,-0.47
2023-03-04T00:37:34.556Z,-0.48
2023-03-04T00:37:44.565Z,-0.47
2023-03-04T00:37:54.553Z,-0.47
2023-03-04T00:38:04.562Z,-0.47
2023-03-04T00:38:14.577Z,-0.47
2023-03-04T00:38:24.554Z,-0.48
2023-03-04T00:38:34.569Z,-0.50
2023-03-04T00:38:44.557Z,-0.48
2023-03-04T00:38:54.568Z,-0.47
2023-03-04T00:39:04.559Z,-0.48
2023-03-04T00:39:14.569Z,-0.48
2023-03-04T00:39:24.574Z,-0.50
2023-03-04T00:39:34.569Z,-0.48
2023-03-04T00:39:44.566Z,-0.48
2023-03-04T00:39:54.589Z,-0.48
2023-03-04T00:40:04.602Z,-0.47
2023-03-04T00:40:14.570Z,-0.48
2023-03-04T00:40:24.576Z,-0.50
2023-03-04T00:40:34.576Z,-0.48
2023-03-04T00:40:44.570Z,-0.48
2023-03-04T00:40:54.589Z,-0.50
2023-03-04T00:41:04.572Z,-0.48
2023-03-04T00:41:14.576Z,-0.48
2023-03-04T00:41:24.577Z,-0.50
2023-03-04T00:41:34.599Z,-0.50
2023-03-04T00:41:44.578Z,-0.50
2023-03-04T00:41:54.577Z,-0.48
2023-03-04T00:42:04.580Z,-0.50
2023-03-04T00:42:14.578Z,-0.50
2023-03-04T00:42:24.580Z,-0.51
2023-03-04T00:42:34.588Z,-0.51
2023-03-04T00:42:44.581Z,-0.51
2023-03-04T00:42:54.585Z,-0.51
2023-03-04T00:43:04.587Z,-0.53
2023-03-04T00:43:14.606Z,-0.53
2023-03-04T00:43:24.585Z,-0.51
2023-03-04T00:43:34.586Z,-0.51
2023-03-04T00:43:44.594Z,-0.51
2023-03-04T00:43:54.597Z,-0.53
2023-03-04T00:44:04.585Z,-0.51
2023-03-04T00:44:14.586Z,-0.51
2023-03-04T00:44:24.594Z,-0.51
2023-03-04T00:44:34.590Z,-0.51
2023-03-04T00:44:44.590Z,-0.53
2023-03-04T00:44:54.586Z,-0.51
2023-03-04T00:45:04.596Z,-0.51
2023-03-04T00:45:14.591Z,-0.51
2023-03-04T00:45:24.594Z,-0.51
2023-03-04T00:45:34.731Z,-0.51
2023-03-04T00:45:44.668Z,-0.51
2023-03-04T00:45:54.638Z,-0.51
2023-03-04T00:46:04.732Z,-0.51
2023-03-04T00:46:14.636Z,-0.51
2023-03-04T00:46:24.604Z,-0.51
2023-03-04T00:46:34.594Z,-0.50
2023-03-04T00:46:44.608Z,-0.53
2023-03-04T00:46:54.615Z,-0.51
2023-03-04T00:47:04.602Z,-0.53
2023-03-04T00:47:14.617Z,-0.54
2023-03-04T00:47:24.609Z,-0.55
2023-03-04T00:47:34.604Z,-0.53
2023-03-04T00:47:44.610Z,-0.54
2023-03-04T00:47:54.602Z,-0.54
2023-03-04T00:48:04.606Z,-0.55
2023-03-04T00:48:14.616Z,-0.54
2023-03-04T00:48:24.608Z,-0.54
2023-03-04T00:48:34.610Z,-0.53
2023-03-04T00:48:44.610Z,-0.54
2023-03-04T00:48:54.615Z,-0.55
2023-03-04T00:49:04.620Z,-0.53
2023-03-04T00:49:14.613Z,-0.54
2023-03-04T00:49:24.629Z,-0.54
2023-03-04T00:49:34.610Z,-0.53
2023-03-04T00:49:44.611Z,-0.53
2023-03-04T00:49:54.613Z,-0.54
2023-03-04T00:50:04.646Z,-0.53
2023-03-04T00:50:14.625Z,-0.53
2023-03-04T00:50:24.609Z,-0.54
2023-03-04T00:50:34.613Z,-0.54
2023-03-04T00:50:44.626Z,-0.51
2023-03-04T00:50:54.619Z,-0.53
2023-03-04T00:51:04.621Z,-0.51
2023-03-04T00:51:14.620Z,-0.51
2023-03-04T00:51:24.618Z,-0.53
2023-03-04T00:51:34.619Z,-0.51
2023-03-04T00:51:44.632Z,-0.53
2023-03-04T00:51:54.623Z,-0.53
2023-03-04T00:52:04.624Z,-0.53
2023-03-04T00:52:14.623Z,-0.53
2023-03-04T00:52:24.628Z,-0.53
2023-03-04T00:52:34.635Z,-0.54
2023-03-04T00:52:44.627Z,-0.53
2023-03-04T00:52:54.628Z,-0.53
2023-03-04T00:53:04.628Z,-0.53
2023-03-04T00:53:14.636Z,-0.51
2023-03-04T00:53:24.643Z,-0.53
2023-03-04T00:53:34.667Z,-0.53
2023-03-04T00:53:44.632Z,-0.53
2023-03-04T00:53:54.648Z,-0.51
2023-03-04T00:54:04.644Z,-0.53
2023-03-04T00:54:14.633Z,-0.53
2023-03-04T00:54:24.635Z,-0.53
2023-03-04T00:54:34.636Z,-0.53
2023-03-04T00:54:44.637Z,-0.51
2023-03-04T00:54:54.647Z,-0.53
2023-03-04T00:55:04.637Z,-0.53
2023-03-04T00:55:14.638Z,-0.53
2023-03-04T00:55:24.647Z,-0.51
2023-03-04T00:55:34.641Z,-0.53
2023-03-04T00:55:44.644Z,-0.54
2023-03-04T00:55:54.638Z,-0.53
2023-03-04T00:56:04.649Z,-0.53
2023-03-04T00:56:14.645Z,-0.54
2023-03-04T00:56:24.649Z,-0.55
2023-03-04T00:56:34.645Z,-0.55
2023-03-04T00:56:44.651Z,-0.54
2023-03-04T00:56:54.647Z,-0.54
2023-03-04T00:57:04.649Z,-0.51
2023-03-04T00:57:14.654Z,-0.53
2023-03-04T00:57:24.650Z,-0.54
2023-03-04T00:57:34.650Z,-0.54
2023-03-04T00:57:44.650Z,-0.53
2023-03-04T00:57:54.652Z,-0.53
2023-03-04T00:58:04.660Z,-0.53
2023-03-04T00:58:14.661Z,-0.53
2023-03-04T00:58:24.672Z,-0.54
2023-03-04T00:58:34.654Z,-0.53
2023-03-04T00:58:44.659Z,-0.54
2023-03-04T00:58:54.655Z,-0.54
2023-03-04T00:59:04.653Z,-0.54
2023-03-04T00:59:14.660Z,-0.53
2023-03-04T00:59:24.664Z,-0.53
2023-03-04T00:59:34.661Z,-0.53
2023-03-04T00:59:44.665Z,-0.53
2023-03-04T00:59:54.663Z,-0.53
2023-03-04T01:00:04.665Z,-0.54
2023-03-04T01:00:14.668Z,-0.54
2023-03-04T01:00:24.662Z,-0.54
2023-03-04T01:00:34.680Z,-0.54
2023-03-04T01:00:44.675Z,-0.54
2023-03-04T01:00:54.771Z,-0.53
2023-03-04T01:01:04.714Z,-0.54
2023-03-04T01:01:14.725Z,-0.51
2023-03-04T01:01:24.687Z,-0.53
2023-03-04T01:01:34.742Z,-0.53
2023-03-04T01:01:44.751Z,-0.51
2023-03-04T01:01:54.670Z,-0.54
2023-03-04T01:02:04.711Z,-0.53
2023-03-04T01:02:14.702Z,-0.53
2023-03-04T01:02:24.717Z,-0.53
2023-03-04T01:02:34.731Z,-0.53
2023-03-04T01:02:44.674Z,-0.53
2023-03-04T01:02:54.676Z,-0.53
2023-03-04T01:03:04.677Z,-0.53
2023-03-04T01:03:14.691Z,-0.53
2023-03-04T01:03:24.696Z,-0.54
2023-03-04T01:03:34.693Z,-0.53
2023-03-04T01:03:44.682Z,-0.53
2023-03-04T01:03:54.685Z,-0.54
2023-03-04T01:04:04.679Z,-0.54
2023-03-04T01:04:14.688Z,-0.55
2023-03-04T01:04:24.687Z,-0.54
2023-03-04T01:04:34.685Z,-0.54
2023-03-04T01:04:44.686Z,-0.53
2023-03-04T01:04:54.717Z,-0.54
2023-03-04T01:05:04.697Z,-0.54
2023-03-04T01:05:14.692Z,-0.53
2023-03-04T01:05:24.697Z,-0.54
2023-03-04T01:05:34.695Z,-0.54
2023-03-04T01:05:44.703Z,-0.53
2023-03-04T01:05:54.700Z,-0.54
2023-03-04T01:06:04.701Z,-0.54
2023-03-04T01:06:14.691Z,-0.54
2023-03-04T01:06:24.702Z,-0.51
2023-03-04T01:06:34.725Z,-0.53
2023-03-04T01:06:44.713Z,-0.53
2023-03-04T01:06:54.709Z,-0.53
2023-03-04T01:07:04.709Z,-0.54
2023-03-04T01:07:14.701Z,-0.53
2023-03-04T01:07:24.709Z,-0.51
2023-03-04T01:07:34.705Z,-0.51
2023-03-04T01:07:44.711Z,-0.53
2023-03-04T01:07:54.706Z,-0.51
2023-03-04T01:08:04.715Z,-0.53
2023-03-04T01:08:14.716Z,-0.53
2023-03-04T01:08:24.734Z,-0.51
2023-03-04T01:08:34.727Z,-0.51
2023-03-04T01:08:44.721Z,-0.51
2023-03-04T01:08:54.710Z,-0.50
2023-03-04T01:09:04.716Z,-0.50
2023-03-04T01:09:14.715Z,-0.50
2023-03-04T01:09:24.718Z,-0.51
2023-03-04T01:09:34.712Z,-0.48
2023-03-04T01:09:44.716Z,-0.50
2023-03-04T01:09:54.753Z,-0.51
2023-03-04T01:10:04.718Z,-0.51
2023-03-04T01:10:14.720Z,-0.51
2023-03-04T01:10:24.723Z,-0.50
2023-03-04T01:10:34.727Z,-0.50
2023-03-04T01:10:44.730Z,-0.53
2023-03-04T01:10:54.729Z,-0.53
2023-03-04T01:11:04.727Z,-0.53
2023-03-04T01:11:14.729Z,-0.53
2023-03-04T01:11:24.729Z,-0.51
2023-03-04T01:11:34.734Z,-0.51
2023-03-04T01:11:44.728Z,-0.51
2023-03-04T01:11:54.723Z,-0.53
2023-03-04T01:12:04.744Z,-0.51
2023-03-04T01:12:14.732Z,-0.54
2023-03-04T01:12:24.735Z,-0.53
2023-03-04T01:12:34.724Z,-0.51
2023-03-04T01:12:44.717Z,-0.53
2023-03-04T01:12:54.743Z,-0.51
2023-03-04T01:13:04.733Z,-0.51
2023-03-04T01:13:14.737Z,-0.51
2023-03-04T01:13:24.760Z,-0.51
2023-03-04T01:13:34.778Z,-0.51
2023-03-04T01:13:44.742Z,-0.50
2023-03-04T01:13:54.737Z,-0.51
2023-03-04T01:14:04.744Z,-0.53
2023-03-04T01:14:14.738Z,-0.51
2023-03-04T01:14:24.761Z,-0.51
2023-03-04T01:14:34.755Z,-0.53
2023-03-04T01:14:44.748Z,-0.51
2023-03-04T01:14:54.742Z,-0.51
2023-03-04T01:15:04.751Z,-0.53
2023-03-04T01:15:14.746Z,-0.51
2023-03-04T01:15:24.746Z,-0.50
2023-03-04T01:15:34.750Z,-0.50
2023-03-04T01:15:44.747Z,-0.50
2023-03-04T01:15:54.749Z,-0.51
2023-03-04T01:16:04.761Z,-0.51
2023-03-04T01:16:14.827Z,-0.51
2023-03-04T01:16:24.865Z,-0.51
2023-03-04T01:16:34.903Z,-0.50
2023-03-04T01:16:44.796Z,-0.50
2023-03-04T01:16:54.787Z,-0.51
2023-03-04T01:17:04.756Z,-0.48
2023-03-04T01:17:14.759Z,-0.48
2023-03-04T01:17:24.755Z,-0.50
2023-03-04T01:17:34.816Z,-0.50
2023-03-04T01:17:44.762Z,-0.48
2023-03-04T01:17:54.805Z,-0.51
2023-03-04T01:18:04.807Z,-0.50
2023-03-04T01:18:14.804Z,-0.48
2023-03-04T01:18:24.779Z,-0.50
2023-03-04T01:18:34.791Z,-0.51
2023-03-04T01:18:44.771Z,-0.51
2023-03-04T01:18:54.764Z,-0.48
2023-03-04T01:19:04.771Z,-0.51
2023-03-04T01:19:14.763Z,-0.51
2023-03-04T01:19:24.765Z,-0.50
2023-03-04T01:19:34.773Z,-0.50
2023-03-04T01:19:44.782Z,-0.51
2023-03-04T01:19:54.765Z,-0.50
2023-03-04T01:20:04.772Z,-0.50
2023-03-04T01:20:14.774Z,-0.50
2023-03-04T01:20:24.795Z,-0.51
2023-03-04T01:20:34.771Z,-0.51
2023-03-04T01:20:44.805Z,-0.48
2023-03-04T01:20:54.777Z,-0.50
2023-03-04T01:21:04.801Z,-0.48
2023-03-04T01:21:14.778Z,-0.50
2023-03-04T01:21:24.776Z,-0.48
2023-03-04T01:21:34.772Z,-0.50
2023-03-04T01:21:44.780Z,-0.50
2023-03-04T01:21:54.781Z,-0.48
2023-03-04T01:22:04.778Z,-0.51
2023-03-04T01:22:14.778Z,-0.50
2023-03-04T01:22:24.778Z,-0.48
2023-03-04T01:22:34.807Z,-0.53
2023-03-04T01:22:44.791Z,-0.51
2023-03-04T01:22:54.789Z,-0.50
2023-03-04T01:23:04.786Z,-0.50
2023-03-04T01:23:14.786Z,-0.50
2023-03-04T01:23:24.802Z,-0.51
2023-03-04T01:23:34.781Z,-0.50
2023-03-04T01:23:44.783Z,-0.50
2023-03-04T01:23:54.789Z,-0.51
2023-03-04T01:24:04.784Z,-0.50
2023-03-04T01:24:14.792Z,-0.50
2023-03-04T01:24:24.788Z,-0.51
2023-03-04T01:24:34.792Z,-0.50
2023-03-04T01:24:44.797Z,-0.50
2023-03-04T01:24:54.788Z,-0.50
2023-03-04T01:25:04.793Z,-0.51
2023-03-04T01:25:14.804Z,-0.51
2023-03-04T01:25:24.792Z,-0.51
2023-03-04T01:25:34.828Z,-0.54
2023-03-04T01:25:44.798Z,-0.51
2023-03-04T01:25:54.793Z,-0.53
2023-03-04T01:26:04.792Z,-0.53
2023-03-04T01:26:14.804Z,-0.54
2023-03-04T01:26:24.798Z,-0.54
2023-03-04T01:26:34.801Z,-0.54
2023-03-04T01:26:44.795Z,-0.53
2023-03-04T01:26:54.805Z,-0.54
2023-03-04T01:27:04.827Z,-0.54
2023-03-04T01:27:14.806Z,-0.53
2023-03-04T01:27:24.806Z,-0.54
2023-03-04T01:27:34.845Z,-0.53
2023-03-04T01:27:44.805Z,-0.54
2023-03-04T01:27:54.809Z,-0.53
2023-03-04T01:28:04.821Z,-0.54
2023-03-04T01:28:14.810Z,-0.54
2023-03-04T01:28:24.815Z,-0.54
2023-03-04T01:28:34.811Z,-0.54
2023-03-04T01:28:44.812Z,-0.54
2023-03-04T01:28:54.809Z,-0.54
2023-03-04T01:29:04.821Z,-0.54
2023-03-04T01:29:14.811Z,-0.54
2023-03-04T01:29:24.817Z,-0.54
2023-03-04T01:29:34.846Z,-0.54
2023-03-04T01:29:44.819Z,-0.53
2023-03-04T01:29:54.814Z,-0.53
2023-03-04T01:30:04.826Z,-0.53
2023-03-04T01:30:14.822Z,-0.54
2023-03-04T01:30:24.821Z,-0.53
2023-03-04T01:30:34.852Z,-0.53
2023-03-04T01:30:44.849Z,-0.54
2023-03-04T01:30:54.838Z,-0.54
2023-03-04T01:31:04.842Z,-0.54
2023-03-04T01:31:14.880Z,-0.53
2023-03-04T01:31:24.831Z,-0.53
2023-03-04T01:31:34.824Z,-0.53
2023-03-04T01:31:44.830Z,-0.54
2023-03-04T01:31:54.893Z,-0.51
2023-03-04T01:32:04.894Z,-0.53
2023-03-04T01:32:14.916Z,-0.55
2023-03-04T01:32:24.919Z,-0.54
2023-03-04T01:32:34.967Z,-0.53
2023-03-04T01:32:44.841Z,-0.51
2023-03-04T01:32:54.823Z,-0.51
2023-03-04T01:33:04.828Z,-0.51
2023-03-04T01:33:14.840Z,-0.53
2023-03-04T01:33:24.833Z,-0.51
2023-03-04T01:33:34.974Z,-0.53
2023-03-04T01:33:44.839Z,-0.51
2023-03-04T01:33:54.831Z,-0.53
2023-03-04T01:34:04.829Z,-0.53
2023-03-04T01:34:14.840Z,-0.54
2023-03-04T01:34:24.834Z,-0.54
2023-03-04T01:34:34.847Z,-0.54
2023-03-04T01:34:44.837Z,-0.53
2023-03-04T01:34:54.837Z,-0.53
2023-03-04T01:35:04.836Z,-0.53
2023-03-04T01:35:14.844Z,-0.53
2023-03-04T01:35:24.874Z,-0.53
2023-03-04T01:35:34.932Z,-0.51
2023-03-04T01:35:44.887Z,-0.55
2023-03-04T01:35:54.878Z,-0.55
2023-03-04T01:36:04.844Z,-0.55
2023-03-04T01:36:14.844Z,-0.53
2023-03-04T01:36:24.844Z,-0.53
2023-03-04T01:36:34.855Z,-0.53
2023-03-04T01:36:44.854Z,-0.55
2023-03-04T01:36:54.853Z,-0.54
2023-03-04T01:37:04.851Z,-0.55
2023-03-04T01:37:14.858Z,-0.54
2023-03-04T01:37:24.884Z,-0.54
2023-03-04T01:37:34.861Z,-0.57
2023-03-04T01:37:44.857Z,-0.55
2023-03-04T01:37:54.861Z,-0.54
2023-03-04T01:38:05.265Z,-0.54
2023-03-04T01:38:14.866Z,-0.54
2023-03-04T01:38:24.878Z,-0.55
2023-03-04T01:38:34.910Z,-0.55
2023-03-04T01:38:44.863Z,-0.53
2023-03-04T01:38:54.863Z,-0.54
2023-03-04T01:39:04.870Z,-0.53
2023-03-04T01:39:14.869Z,-0.51
2023-03-04T01:39:24.866Z,-0.53
2023-03-04T01:39:34.891Z,-0.55
2023-03-04T01:39:44.882Z,-0.51
2023-03-04T01:39:54.868Z,-0.54
2023-03-04T01:40:04.872Z,-0.54
2023-03-04T01:40:14.875Z,-0.54
2023-03-04T01:40:24.876Z,-0.53
2023-03-04T01:40:34.879Z,-0.53
2023-03-04T01:40:44.916Z,-0.51
2023-03-04T01:40:54.915Z,-0.54
2023-03-04T01:41:04.884Z,-0.54
2023-03-04T01:41:14.886Z,-0.53
2023-03-04T01:41:24.879Z,-0.53
2023-03-04T01:41:34.888Z,-0.54
2023-03-04T01:41:44.888Z,-0.54
2023-03-04T01:41:54.888Z,-0.55
2023-03-04T01:42:04.882Z,-0.55
2023-03-04T01:42:14.892Z,-0.54
2023-03-04T01:42:24.903Z,-0.55
2023-03-04T01:42:34.889Z,-0.57
2023-03-04T01:42:44.915Z,-0.57
2023-03-04T01:42:54.883Z,-0.55
2023-03-04T01:43:04.889Z,-0.54
2023-03-04T01:43:14.896Z,-0.54
2023-03-04T01:43:24.910Z,-0.55
2023-03-04T01:43:34.900Z,-0.54
2023-03-04T01:43:44.901Z,-0.57
2023-03-04T01:43:54.902Z,-0.54
2023-03-04T01:44:04.891Z,-0.55
2023-03-04T01:44:14.903Z,-0.55
2023-03-04T01:44:24.901Z,-0.55
2023-03-04T01:44:34.901Z,-0.55
2023-03-04T01:44:44.917Z,-0.57
2023-03-04T01:44:54.901Z,-0.57
2023-03-04T01:45:04.899Z,-0.58
2023-03-04T01:45:14.900Z,-0.57
2023-03-04T01:45:24.901Z,-0.57
2023-03-04T01:45:34.926Z,-0.55
2023-03-04T01:45:44.903Z,-0.57
2023-03-04T01:45:54.939Z,-0.55
2023-03-04T01:46:04.938Z,-0.55
2023-03-04T01:46:14.990Z,-0.55
2023-03-04T01:46:24.939Z,-0.57
2023-03-04T01:46:35.006Z,-0.55
2023-03-04T01:46:44.912Z,-0.55
2023-03-04T01:46:54.929Z,-0.57
2023-03-04T01:47:04.911Z,-0.54
2023-03-04T01:47:14.914Z,-0.55
2023-03-04T01:47:24.913Z,-0.55
2023-03-04T01:47:34.914Z,-0.55
2023-03-04T01:47:44.918Z,-0.55
2023-03-04T01:47:54.920Z,-0.57
2023-03-04T01:48:04.925Z,-0.57
2023-03-04T01:48:14.919Z,-0.57
2023-03-04T01:48:24.939Z,-0.55
2023-03-04T01:48:34.996Z,-0.55
2023-03-04T01:48:44.966Z,-0.55
2023-03-04T01:48:54.952Z,-0.55
2023-03-04T01:49:05.026Z,-0.55
2023-03-04T01:49:14.961Z,-0.55
2023-03-04T01:49:24.937Z,-0.55
2023-03-04T01:49:34.925Z,-0.55
2023-03-04T01:49:44.921Z,-0.55
2023-03-04T01:49:54.932Z,-0.55
2023-03-04T01:50:04.926Z,-0.55
2023-03-04T01:50:14.935Z,-0.57
2023-03-04T01:50:24.927Z,-0.55
2023-03-04T01:50:34.940Z,-0.57
2023-03-04T01:50:44.943Z,-0.57
2023-03-04T01:50:54.940Z,-0.57
2023-03-04T01:51:04.927Z,-0.58
2023-03-04T01:51:14.931Z,-0.57
2023-03-04T01:51:24.926Z,-0.57
2023-03-04T01:51:34.939Z,-0.57
2023-03-04T01:51:44.930Z,-0.58
2023-03-04T01:51:54.942Z,-0.58
2023-03-04T01:52:04.935Z,-0.60
2023-03-04T01:52:14.934Z,-0.58
2023-03-04T01:52:24.936Z,-0.58
2023-03-04T01:52:34.933Z,-0.57
2023-03-04T01:52:44.931Z,-0.58
2023-03-04T01:52:54.956Z,-0.57
2023-03-04T01:53:04.939Z,-0.58
2023-03-04T01:53:14.955Z,-0.60
2023-03-04T01:53:24.952Z,-0.58
2023-03-04T01:53:34.938Z,-0.58
2023-03-04T01:53:44.941Z,-0.60
2023-03-04T01:53:54.963Z,-0.58
2023-03-04T01:54:04.936Z,-0.60
2023-03-04T01:54:14.945Z,-0.60
2023-03-04T01:54:24.960Z,-0.60
2023-03-04T01:54:34.943Z,-0.60
2023-03-04T01:54:44.942Z,-0.58
2023-03-04T01:54:54.953Z,-0.61
2023-03-04T01:55:04.955Z,-0.61
2023-03-04T01:55:14.946Z,-0.60
2023-03-04T01:55:24.957Z,-0.58
2023-03-04T01:55:34.952Z,-0.60
2023-03-04T01:55:44.945Z,-0.60
2023-03-04T01:55:54.951Z,-0.60
2023-03-04T01:56:04.948Z,-0.60
2023-03-04T01:56:14.952Z,-0.60
2023-03-04T01:56:24.951Z,-0.60
2023-03-04T01:56:34.955Z,-0.58
2023-03-04T01:56:44.956Z,-0.58
2023-03-04T01:56:54.949Z,-0.57
2023-03-04T01:57:04.954Z,-0.57
2023-03-04T01:57:14.955Z,-0.57
2023-03-04T01:57:24.955Z,-0.58
2023-03-04T01:57:34.955Z,-0.58
2023-03-04T01:57:44.958Z,-0.57
2023-03-04T01:57:54.965Z,-0.57
2023-03-04T01:58:04.959Z,-0.57
2023-03-04T01:58:14.965Z,-0.58
2023-03-04T01:58:24.970Z,-0.55
2023-03-04T01:58:34.956Z,-0.55
2023-03-04T01:58:44.966Z,-0.57
2023-03-04T01:58:54.967Z,-0.57
2023-03-04T01:59:04.962Z,-0.55
2023-03-04T01:59:14.980Z,-0.58
2023-03-04T01:59:24.994Z,-0.57
2023-03-04T01:59:34.981Z,-0.57
2023-03-04T01:59:44.982Z,-0.55
2023-03-04T01:59:54.978Z,-0.57
2023-03-04T02:00:04.969Z,-0.55
2023-03-04T02:00:14.971Z,-0.58
2023-03-04T02:00:24.983Z,-0.57
2023-03-04T02:00:34.988Z,-0.58
2023-03-04T02:00:44.972Z,-0.58
2023-03-04T02:00:54.991Z,-0.57
2023-03-04T02:01:04.981Z,-0.57
2023-03-04T02:01:14.994Z,-0.58
2023-03-04T02:01:24.991Z,-0.57
2023-03-04T02:01:35.017Z,-0.58
2023-03-04T02:01:45.052Z,-0.58
2023-03-04T02:01:55.055Z,-0.60
2023-03-04T02:02:04.980Z,-0.58
2023-03-04T02:02:14.984Z,-0.58
2023-03-04T02:02:24.985Z,-0.58
2023-03-04T02:02:34.989Z,-0.58
2023-03-04T02:02:44.987Z,-0.60
2023-03-04T02:02:54.990Z,-0.60
2023-03-04T02:03:04.984Z,-0.58
2023-03-04T02:03:14.996Z,-0.58
2023-03-04T02:03:25.036Z,-0.60
2023-03-04T02:03:34.998Z,-0.60
2023-03-04T02:03:44.992Z,-0.60
2023-03-04T02:03:55.074Z,-0.60
2023-03-04T02:04:05.077Z,-0.61
2023-03-04T02:04:15.035Z,-0.60
2023-03-04T02:04:25.107Z,-0.60
2023-03-04T02:04:35.128Z,-0.60
2023-03-04T02:04:44.997Z,-0.61
2023-03-04T02:04:55.005Z,-0.58
2023-03-04T02:05:05.000Z,-0.58
2023-03-04T02:05:15.013Z,-0.60
2023-03-04T02:05:25.001Z,-0.60
2023-03-04T02:05:35.005Z,-0.60
2023-03-04T02:05:45.007Z,-0.60
2023-03-04T02:05:55.012Z,-0.60
2023-03-04T02:06:05.014Z,-0.58
2023-03-04T02:06:15.011Z,-0.60
2023-03-04T02:06:25.005Z,-0.58
2023-03-04T02:06:35.007Z,-0.57
2023-03-04T02:06:45.010Z,-0.57
2023-03-04T02:06:55.008Z,-0.57
2023-03-04T02:07:05.007Z,-0.57
2023-03-04T02:07:15.034Z,-0.58
2023-03-04T02:07:25.022Z,-0.57
2023-03-04T02:07:35.007Z,-0.58
2023-03-04T02:07:45.016Z,-0.58
2023-03-04T02:07:55.018Z,-0.57
2023-03-04T02:08:05.005Z,-0.57
2023-03-04T02:08:15.022Z,-0.58
2023-03-04T02:08:25.046Z,-0.57
2023-03-04T02:08:35.027Z,-0.58
2023-03-04T02:08:45.017Z,-0.58